Currently 62°F in Lake Elsinore, California, USA
62°F
65°F / 62°F
calm
0.00"
Friday, September 4, 2026 1:57 AM PDT

Lake Elsinore, California Weather Summary
Last 36 Hours

Temperature Winds Hourly Humidity Dewpoint
Time Report Norm Report Norm Max Gusts Precip. Rpt. Norm Rpt. Norm Pressure
1Fri 01:57 AM  61.7°F  70°F  calm  calm  3 mph  0.00"  60%  66%  47°F  58°F  N/A
3Fri 01:54 AM  61.5°F  70°F  1 mph S  calm  3 mph  ----  60%  66%  47°F  58°F  N/A
Fri 01:00 AM  63.1°F  72°F  1 mph S  calm  2 mph  0.00"  60%  65%  49°F  59°F  N/A
2Fri 12:02 AM  64.5°F  73°F  calm  calm  none  ----  64%  63%  52°F  59°F  N/A
Fri 12:00 AM  64.5°F  73°F  calm  calm  4 mph  0.00"  64%  63%  51°F  59°F  N/A
Thu 11:00 PM  66.5°F  75°F  calm  calm  4 mph  0.00"  66%  61%  54°F  60°F  N/A
Thu 10:00 PM  67.7°F  76°F  1 mph S  1 mph  11 mph  0.00"  66%  58%  56°F  60°F  N/A
Thu 09:00 PM  71.1°F  79°F  5 mph S  1 mph  11 mph  0.00"  58%  52%  55°F  59°F  N/A
Thu 08:00 PM  75.1°F  82°F  calm  2 mph  9 mph  0.00"  42%  45%  50°F  58°F  N/A
Thu 07:00 PM  77.2°F  87°F  calm  2 mph  18 mph  0.00"  37%  36%  48°F  56°F  N/A
Thu 06:00 PM  81.6°F  93°F  calm  3 mph  19 mph  0.00"  36%  29%  51°F  55°F  N/A
Thu 05:00 PM  84.9°F  96°F  4 mph S  4 mph  22 mph  0.00"  32%  25%  51°F  54°F  N/A
Thu 04:00 PM  90.0°F  99°F  9 mph S  4 mph  21 mph  0.00"  25%  23%  48°F  53°F  N/A
Thu 03:00 PM  92.0°F  99°F  calm  4 mph  none  0.00"  23%  21%  48°F  52°F  N/A
Thu 02:00 PM  89.5°F  99°F  calm  2 mph  11 mph  0.00"  22%  21%  44°F  51°F  N/A
Thu 01:00 PM  87.8°F  97°F  calm  2 mph  6 mph  0.00"  23%  22%  44°F  52°F  N/A
Thu 12:00 PM  83.4°F  94°F  calm  2 mph  7 mph  0.00"  29%  27%  47°F  54°F  N/A
Thu 11:00 AM  81.5°F  90°F  2 mph S  2 mph  7 mph  0.00"  33%  34%  49°F  57°F  N/A
Thu 10:00 AM  76.5°F  85°F  calm  1 mph  5 mph  0.00"  40%  43%  50°F  59°F  N/A
Thu 09:00 AM  71.3°F  79°F  2 mph S  1 mph  7 mph  0.00"  56%  55%  54°F  61°F  N/A
Thu 08:00 AM  63.3°F  71°F  2 mph S  calm  4 mph  0.00"  77%  72%  56°F  61°F  N/A
Thu 07:00 AM  58.6°F  66°F  1 mph S  calm  3 mph  0.00"  75%  73%  50°F  57°F  N/A
Thu 06:00 AM  58.2°F  67°F  calm  calm  3 mph  0.00"  72%  72%  49°F  57°F  N/A
Thu 05:00 AM  59.2°F  68°F  calm  calm  2 mph  0.00"  71%  71%  49°F  57°F  N/A
Thu 04:00 AM  59.9°F  68°F  calm  calm  3 mph  0.00"  71%  69%  50°F  58°F  N/A
Thu 03:00 AM  61.6°F  69°F  calm  calm  3 mph  0.00"  71%  68%  52°F  58°F  N/A
Thu 02:00 AM  62.8°F  71°F  1 mph S  calm  3 mph  0.00"  69%  66%  52°F  58°F  N/A
Thu 01:00 AM  63.9°F  72°F  calm  calm  4 mph  0.00"  67%  64%  52°F  59°F  N/A
Thu 12:00 AM  65.4°F  73°F  calm  calm  5 mph  0.00"  66%  62%  53°F  59°F  N/A
Wed 11:00 PM  67.7°F  75°F  2 mph S  calm  9 mph  0.00"  67%  61%  56°F  60°F  N/A
Wed 10:00 PM  70.1°F  77°F  3 mph S  1 mph  8 mph  0.00"  60%  57%  55°F  60°F  N/A
Wed 09:00 PM  72.8°F  79°F  4 mph S  1 mph  7 mph  0.00"  51%  52%  53°F  60°F  N/A
Wed 08:00 PM  75.2°F  83°F  1 mph S  2 mph  8 mph  0.00"  42%  45%  50°F  59°F  N/A
Wed 07:00 PM  79.0°F  88°F  calm  2 mph  16 mph  0.00"  38%  36%  51°F  57°F  N/A
Wed 06:00 PM  83.6°F  93°F  calm  3 mph  19 mph  0.00"  32%  28%  50°F  55°F  N/A
Wed 05:00 PM  88.2°F  97°F  calm  4 mph  18 mph  0.00"  26%  25%  48°F  53°F  N/A
Wed 04:00 PM  94.1°F  99°F  calm  4 mph  16 mph  0.00"  18%  22%  42°F  53°F  N/A
Wed 03:00 PM  94.2°F  100°F  calm  4 mph  none  0.00"  14%  21%  37°F  51°F  N/A
Wed 02:00 PM  93.2°F  100°F  calm  2 mph  none  0.00"  15%  20%  37°F  50°F  N/A

  1. Current weather data. No green row appears if the current weather data is also the high or low for the current day.
  2. High temperature for the current day.
  3. Low temperature for the current day.

The Lake Elsinore, California weather pages are a service of WeatherCurrents. Lake Elsinore is located south of Corona and north of the Temecula Valley, in southwestern Riverside County, California.
Copyright ©Fri Sep 04 01:57:54 PDT 2026  WeatherCurrents. All rights reserved. - Submit questions and comments - Privacy Policy

This page automatically refreshes every 10 minutes.